sensor_id;sensor_type;location;lat;lon;timestamp;temperature;humidity
5429;DHT22;2737;52.386;9.980;2023-08-17T00:00:01;18.60;99.90
5429;DHT22;2737;52.386;9.980;2023-08-17T00:02:31;18.60;99.90
5429;DHT22;2737;52.386;9.980;2023-08-17T00:04:58;18.60;99.90
5429;DHT22;2737;52.386;9.980;2023-08-17T00:07:25;18.60;99.90
5429;DHT22;2737;52.386;9.980;2023-08-17T00:09:52;18.50;99.90
5429;DHT22;2737;52.386;9.980;2023-08-17T00:12:20;18.50;99.90
5429;DHT22;2737;52.386;9.980;2023-08-17T00:14:47;18.50;99.90
5429;DHT22;2737;52.386;9.980;2023-08-17T00:17:14;18.50;99.90
5429;DHT22;2737;52.386;9.980;2023-08-17T00:19:41;18.60;99.90
5429;DHT22;2737;52.386;9.980;2023-08-17T00:22:09;18.60;99.90
5429;DHT22;2737;52.386;9.980;2023-08-17T00:24:36;18.70;99.90
5429;DHT22;2737;52.386;9.980;2023-08-17T00:27:03;18.80;99.90
5429;DHT22;2737;52.386;9.980;2023-08-17T00:29:32;18.80;99.90
5429;DHT22;2737;52.386;9.980;2023-08-17T00:32:00;18.80;99.90
5429;DHT22;2737;52.386;9.980;2023-08-17T00:34:28;18.80;99.90
5429;DHT22;2737;52.386;9.980;2023-08-17T00:36:55;18.80;99.90
5429;DHT22;2737;52.386;9.980;2023-08-17T00:39:22;18.80;99.90
5429;DHT22;2737;52.386;9.980;2023-08-17T00:41:48;18.80;99.90
5429;DHT22;2737;52.386;9.980;2023-08-17T00:44:15;18.70;99.90
5429;DHT22;2737;52.386;9.980;2023-08-17T00:46:44;18.60;99.90
5429;DHT22;2737;52.386;9.980;2023-08-17T00:49:11;18.60;99.90
5429;DHT22;2737;52.386;9.980;2023-08-17T00:51:39;18.60;99.90
5429;DHT22;2737;52.386;9.980;2023-08-17T00:54:07;18.60;99.90
5429;DHT22;2737;52.386;9.980;2023-08-17T00:56:34;18.60;99.90
5429;DHT22;2737;52.386;9.980;2023-08-17T00:59:01;18.70;99.90
5429;DHT22;2737;52.386;9.980;2023-08-17T01:01:28;18.70;99.90
5429;DHT22;2737;52.386;9.980;2023-08-17T01:03:56;18.70;99.90
5429;DHT22;2737;52.386;9.980;2023-08-17T01:06:23;18.70;99.90
5429;DHT22;2737;52.386;9.980;2023-08-17T01:08:50;18.70;99.90
5429;DHT22;2737;52.386;9.980;2023-08-17T01:11:25;18.60;99.90
5429;DHT22;2737;52.386;9.980;2023-08-17T01:13:57;18.60;99.90
5429;DHT22;2737;52.386;9.980;2023-08-17T01:16:31;18.60;99.90
5429;DHT22;2737;52.386;9.980;2023-08-17T01:19:01;18.60;99.90
5429;DHT22;2737;52.386;9.980;2023-08-17T01:21:40;18.60;99.90
5429;DHT22;2737;52.386;9.980;2023-08-17T01:24:11;18.60;99.90
5429;DHT22;2737;52.386;9.980;2023-08-17T01:26:38;18.50;99.90
5429;DHT22;2737;52.386;9.980;2023-08-17T01:29:05;18.40;99.90
5429;DHT22;2737;52.386;9.980;2023-08-17T01:31:39;18.40;99.90
5429;DHT22;2737;52.386;9.980;2023-08-17T01:34:10;18.40;99.90
5429;DHT22;2737;52.386;9.980;2023-08-17T01:36:43;18.50;99.90
5429;DHT22;2737;52.386;9.980;2023-08-17T01:39:16;18.40;99.90
5429;DHT22;2737;52.386;9.980;2023-08-17T01:41:46;18.40;99.90
5429;DHT22;2737;52.386;9.980;2023-08-17T01:44:13;18.40;99.90
5429;DHT22;2737;52.386;9.980;2023-08-17T01:46:41;18.40;99.90
5429;DHT22;2737;52.386;9.980;2023-08-17T01:49:08;18.40;99.90
5429;DHT22;2737;52.386;9.980;2023-08-17T01:51:35;18.30;99.90
5429;DHT22;2737;52.386;9.980;2023-08-17T01:54:02;18.20;99.90
5429;DHT22;2737;52.386;9.980;2023-08-17T01:56:30;18.10;99.90
5429;DHT22;2737;52.386;9.980;2023-08-17T01:58:57;18.00;99.90
5429;DHT22;2737;52.386;9.980;2023-08-17T02:01:24;17.90;99.90
5429;DHT22;2737;52.386;9.980;2023-08-17T02:03:51;17.80;99.90
5429;DHT22;2737;52.386;9.980;2023-08-17T02:06:18;17.80;99.90
5429;DHT22;2737;52.386;9.980;2023-08-17T02:08:45;17.70;99.90
5429;DHT22;2737;52.386;9.980;2023-08-17T02:11:12;17.70;99.90
5429;DHT22;2737;52.386;9.980;2023-08-17T02:13:41;17.60;99.90
5429;DHT22;2737;52.386;9.980;2023-08-17T02:16:08;17.50;99.90
5429;DHT22;2737;52.386;9.980;2023-08-17T02:18:35;17.50;99.90
5429;DHT22;2737;52.386;9.980;2023-08-17T02:21:02;17.40;99.90
5429;DHT22;2737;52.386;9.980;2023-08-17T02:23:29;17.40;99.90
5429;DHT22;2737;52.386;9.980;2023-08-17T02:25:56;17.40;99.90
5429;DHT22;2737;52.386;9.980;2023-08-17T02:28:23;17.30;99.90
5429;DHT22;2737;52.386;9.980;2023-08-17T02:30:55;17.30;99.90
5429;DHT22;2737;52.386;9.980;2023-08-17T02:33:22;17.30;99.90
5429;DHT22;2737;52.386;9.980;2023-08-17T02:35:50;17.30;99.90
5429;DHT22;2737;52.386;9.980;2023-08-17T02:38:17;17.30;99.90
5429;DHT22;2737;52.386;9.980;2023-08-17T02:40:44;17.20;99.90
5429;DHT22;2737;52.386;9.980;2023-08-17T02:43:11;17.20;99.90
5429;DHT22;2737;52.386;9.980;2023-08-17T02:45:38;17.20;99.90
5429;DHT22;2737;52.386;9.980;2023-08-17T02:48:07;17.10;99.90
5429;DHT22;2737;52.386;9.980;2023-08-17T02:50:34;17.10;99.90
5429;DHT22;2737;52.386;9.980;2023-08-17T02:53:01;17.10;99.90
5429;DHT22;2737;52.386;9.980;2023-08-17T02:55:28;17.10;99.90
5429;DHT22;2737;52.386;9.980;2023-08-17T02:57:55;17.10;99.90
5429;DHT22;2737;52.386;9.980;2023-08-17T03:00:23;17.10;99.90
5429;DHT22;2737;52.386;9.980;2023-08-17T03:02:50;17.10;99.90
5429;DHT22;2737;52.386;9.980;2023-08-17T03:05:20;17.10;99.90
5429;DHT22;2737;52.386;9.980;2023-08-17T03:07:47;17.10;99.90
5429;DHT22;2737;52.386;9.980;2023-08-17T03:10:14;17.10;99.90
5429;DHT22;2737;52.386;9.980;2023-08-17T03:12:41;17.10;99.90
5429;DHT22;2737;52.386;9.980;2023-08-17T03:15:09;17.10;99.90
5429;DHT22;2737;52.386;9.980;2023-08-17T03:17:37;17.10;99.90
5429;DHT22;2737;52.386;9.980;2023-08-17T03:20:05;17.10;99.90
5429;DHT22;2737;52.386;9.980;2023-08-17T03:22:33;17.10;99.90
5429;DHT22;2737;52.386;9.980;2023-08-17T03:25:00;17.10;99.90
5429;DHT22;2737;52.386;9.980;2023-08-17T03:27:28;17.10;99.90
5429;DHT22;2737;52.386;9.980;2023-08-17T03:29:55;17.10;99.90
5429;DHT22;2737;52.386;9.980;2023-08-17T03:32:22;17.10;99.90
5429;DHT22;2737;52.386;9.980;2023-08-17T03:34:49;17.10;99.90
5429;DHT22;2737;52.386;9.980;2023-08-17T03:37:16;17.20;99.90
5429;DHT22;2737;52.386;9.980;2023-08-17T03:39:44;17.20;99.90
5429;DHT22;2737;52.386;9.980;2023-08-17T03:42:11;17.20;99.90
5429;DHT22;2737;52.386;9.980;2023-08-17T03:44:38;17.20;99.90
5429;DHT22;2737;52.386;9.980;2023-08-17T03:47:05;17.20;99.90
5429;DHT22;2737;52.386;9.980;2023-08-17T03:49:32;17.20;99.90
5429;DHT22;2737;52.386;9.980;2023-08-17T03:51:59;17.20;99.90
5429;DHT22;2737;52.386;9.980;2023-08-17T03:54:26;17.20;99.90
5429;DHT22;2737;52.386;9.980;2023-08-17T03:56:55;17.20;99.90
5429;DHT22;2737;52.386;9.980;2023-08-17T03:59:22;17.20;99.90
5429;DHT22;2737;52.386;9.980;2023-08-17T04:01:50;17.20;99.90
5429;DHT22;2737;52.386;9.980;2023-08-17T04:04:17;17.20;99.90
5429;DHT22;2737;52.386;9.980;2023-08-17T04:06:44;17.20;99.90
5429;DHT22;2737;52.386;9.980;2023-08-17T04:09:11;17.20;99.90
5429;DHT22;2737;52.386;9.980;2023-08-17T04:11:39;17.20;99.90
5429;DHT22;2737;52.386;9.980;2023-08-17T04:14:07;17.20;99.90
5429;DHT22;2737;52.386;9.980;2023-08-17T04:16:34;17.20;99.90
5429;DHT22;2737;52.386;9.980;2023-08-17T04:19:01;17.30;99.90
5429;DHT22;2737;52.386;9.980;2023-08-17T04:21:28;17.30;99.90
5429;DHT22;2737;52.386;9.980;2023-08-17T04:23:55;17.30;99.90
5429;DHT22;2737;52.386;9.980;2023-08-17T04:26:22;17.30;99.90
5429;DHT22;2737;52.386;9.980;2023-08-17T04:28:50;17.30;99.90
5429;DHT22;2737;52.386;9.980;2023-08-17T04:31:19;17.30;99.90
5429;DHT22;2737;52.386;9.980;2023-08-17T04:33:46;17.30;99.90
5429;DHT22;2737;52.386;9.980;2023-08-17T04:36:13;17.30;99.90
5429;DHT22;2737;52.386;9.980;2023-08-17T04:38:40;17.30;99.90
5429;DHT22;2737;52.386;9.980;2023-08-17T04:41:07;17.30;99.90
5429;DHT22;2737;52.386;9.980;2023-08-17T04:43:34;17.30;99.90
5429;DHT22;2737;52.386;9.980;2023-08-17T04:46:01;17.30;99.90
5429;DHT22;2737;52.386;9.980;2023-08-17T04:48:29;17.30;99.90
5429;DHT22;2737;52.386;9.980;2023-08-17T04:50:56;17.30;99.90
5429;DHT22;2737;52.386;9.980;2023-08-17T04:53:23;17.30;99.90
5429;DHT22;2737;52.386;9.980;2023-08-17T04:55:50;17.30;99.90
5429;DHT22;2737;52.386;9.980;2023-08-17T04:58:17;17.30;99.90
5429;DHT22;2737;52.386;9.980;2023-08-17T05:00:44;17.30;99.90
5429;DHT22;2737;52.386;9.980;2023-08-17T05:03:11;17.30;99.90
5429;DHT22;2737;52.386;9.980;2023-08-17T05:05:40;17.30;99.90
5429;DHT22;2737;52.386;9.980;2023-08-17T05:08:07;17.30;99.90
5429;DHT22;2737;52.386;9.980;2023-08-17T05:10:34;17.30;99.90
5429;DHT22;2737;52.386;9.980;2023-08-17T05:13:01;17.30;99.90
5429;DHT22;2737;52.386;9.980;2023-08-17T05:15:28;17.40;99.90
5429;DHT22;2737;52.386;9.980;2023-08-17T05:17:55;17.40;99.90
5429;DHT22;2737;52.386;9.980;2023-08-17T05:20:22;17.40;99.90
5429;DHT22;2737;52.386;9.980;2023-08-17T05:22:51;17.40;99.90
5429;DHT22;2737;52.386;9.980;2023-08-17T05:25:18;17.40;99.90
5429;DHT22;2737;52.386;9.980;2023-08-17T05:27:45;17.40;99.90
5429;DHT22;2737;52.386;9.980;2023-08-17T05:30:12;17.40;99.90
5429;DHT22;2737;52.386;9.980;2023-08-17T05:32:40;17.40;99.90
5429;DHT22;2737;52.386;9.980;2023-08-17T05:35:07;17.50;99.90
5429;DHT22;2737;52.386;9.980;2023-08-17T05:37:34;17.50;99.90
5429;DHT22;2737;52.386;9.980;2023-08-17T05:40:03;17.50;99.90
5429;DHT22;2737;52.386;9.980;2023-08-17T05:42:31;17.50;99.90
5429;DHT22;2737;52.386;9.980;2023-08-17T05:44:58;17.50;99.90
5429;DHT22;2737;52.386;9.980;2023-08-17T05:47:25;17.50;99.90
5429;DHT22;2737;52.386;9.980;2023-08-17T05:49:52;17.50;99.90
5429;DHT22;2737;52.386;9.980;2023-08-17T05:52:19;17.50;99.90
5429;DHT22;2737;52.386;9.980;2023-08-17T05:54:46;17.50;99.90
5429;DHT22;2737;52.386;9.980;2023-08-17T05:57:14;17.50;99.90
5429;DHT22;2737;52.386;9.980;2023-08-17T05:59:41;17.50;99.90
5429;DHT22;2737;52.386;9.980;2023-08-17T06:02:08;17.50;99.90
5429;DHT22;2737;52.386;9.980;2023-08-17T06:04:36;17.50;99.90
5429;DHT22;2737;52.386;9.980;2023-08-17T06:07:03;17.50;99.90
5429;DHT22;2737;52.386;9.980;2023-08-17T06:09:30;17.50;99.90
5429;DHT22;2737;52.386;9.980;2023-08-17T06:11:57;17.60;99.90
5429;DHT22;2737;52.386;9.980;2023-08-17T06:14:25;17.60;99.90
5429;DHT22;2737;52.386;9.980;2023-08-17T06:16:52;17.60;99.90
5429;DHT22;2737;52.386;9.980;2023-08-17T06:19:19;17.60;99.90
5429;DHT22;2737;52.386;9.980;2023-08-17T06:21:46;17.60;99.90
5429;DHT22;2737;52.386;9.980;2023-08-17T06:24:13;17.60;99.90
5429;DHT22;2737;52.386;9.980;2023-08-17T06:26:40;17.50;99.90
5429;DHT22;2737;52.386;9.980;2023-08-17T06:29:07;17.50;99.90
5429;DHT22;2737;52.386;9.980;2023-08-17T06:31:36;17.50;99.90
5429;DHT22;2737;52.386;9.980;2023-08-17T06:34:03;17.50;99.90
5429;DHT22;2737;52.386;9.980;2023-08-17T06:36:31;17.50;99.90
5429;DHT22;2737;52.386;9.980;2023-08-17T06:38:59;17.60;99.90
5429;DHT22;2737;52.386;9.980;2023-08-17T06:41:26;17.60;99.90
5429;DHT22;2737;52.386;9.980;2023-08-17T06:43:53;17.60;99.90
5429;DHT22;2737;52.386;9.980;2023-08-17T06:46:20;17.60;99.90
5429;DHT22;2737;52.386;9.980;2023-08-17T06:48:48;17.60;99.90
5429;DHT22;2737;52.386;9.980;2023-08-17T06:51:15;17.60;99.90
5429;DHT22;2737;52.386;9.980;2023-08-17T06:53:42;17.60;99.90
5429;DHT22;2737;52.386;9.980;2023-08-17T06:56:10;17.50;99.90
5429;DHT22;2737;52.386;9.980;2023-08-17T06:58:37;17.60;99.90
5429;DHT22;2737;52.386;9.980;2023-08-17T07:01:04;17.60;99.90
5429;DHT22;2737;52.386;9.980;2023-08-17T07:03:31;17.60;99.90
5429;DHT22;2737;52.386;9.980;2023-08-17T07:06:00;17.60;99.90
5429;DHT22;2737;52.386;9.980;2023-08-17T07:08:27;17.60;99.90
5429;DHT22;2737;52.386;9.980;2023-08-17T07:10:54;17.60;99.90
5429;DHT22;2737;52.386;9.980;2023-08-17T07:13:21;17.60;99.90
5429;DHT22;2737;52.386;9.980;2023-08-17T07:15:48;17.70;99.90
5429;DHT22;2737;52.386;9.980;2023-08-17T07:18:15;17.70;99.90
5429;DHT22;2737;52.386;9.980;2023-08-17T07:20:42;17.70;99.90
5429;DHT22;2737;52.386;9.980;2023-08-17T07:23:10;17.70;99.90
5429;DHT22;2737;52.386;9.980;2023-08-17T07:25:37;17.80;99.90
5429;DHT22;2737;52.386;9.980;2023-08-17T07:28:05;17.80;99.90
5429;DHT22;2737;52.386;9.980;2023-08-17T07:30:32;17.80;99.90
5429;DHT22;2737;52.386;9.980;2023-08-17T07:32:59;17.80;99.90
5429;DHT22;2737;52.386;9.980;2023-08-17T07:35:26;17.80;99.90
5429;DHT22;2737;52.386;9.980;2023-08-17T07:37:53;17.80;99.90
5429;DHT22;2737;52.386;9.980;2023-08-17T07:40:21;17.80;99.90
5429;DHT22;2737;52.386;9.980;2023-08-17T07:42:48;17.80;99.90
5429;DHT22;2737;52.386;9.980;2023-08-17T07:45:15;17.80;99.90
5429;DHT22;2737;52.386;9.980;2023-08-17T07:47:42;17.80;99.90
5429;DHT22;2737;52.386;9.980;2023-08-17T07:50:09;17.80;99.90
5429;DHT22;2737;52.386;9.980;2023-08-17T07:52:36;17.80;99.90
5429;DHT22;2737;52.386;9.980;2023-08-17T07:55:04;17.80;99.90
5429;DHT22;2737;52.386;9.980;2023-08-17T07:57:32;17.80;99.90
5429;DHT22;2737;52.386;9.980;2023-08-17T07:59:59;17.80;99.90
5429;DHT22;2737;52.386;9.980;2023-08-17T08:02:26;17.80;99.90
5429;DHT22;2737;52.386;9.980;2023-08-17T08:04:53;17.80;99.90
5429;DHT22;2737;52.386;9.980;2023-08-17T08:07:20;17.80;99.90
5429;DHT22;2737;52.386;9.980;2023-08-17T08:09:47;17.80;99.90
5429;DHT22;2737;52.386;9.980;2023-08-17T08:12:14;17.80;99.90
5429;DHT22;2737;52.386;9.980;2023-08-17T08:14:43;17.80;99.90
5429;DHT22;2737;52.386;9.980;2023-08-17T08:17:10;17.80;99.90
5429;DHT22;2737;52.386;9.980;2023-08-17T08:19:37;17.80;99.90
5429;DHT22;2737;52.386;9.980;2023-08-17T08:22:04;17.80;99.90
5429;DHT22;2737;52.386;9.980;2023-08-17T08:24:31;17.80;99.90
5429;DHT22;2737;52.386;9.980;2023-08-17T08:27:00;17.80;99.90
5429;DHT22;2737;52.386;9.980;2023-08-17T08:29:27;17.80;99.90
5429;DHT22;2737;52.386;9.980;2023-08-17T08:31:55;17.70;99.90
5429;DHT22;2737;52.386;9.980;2023-08-17T08:34:25;17.70;99.90
5429;DHT22;2737;52.386;9.980;2023-08-17T08:36:52;17.70;99.90
5429;DHT22;2737;52.386;9.980;2023-08-17T08:39:19;17.70;99.90
5429;DHT22;2737;52.386;9.980;2023-08-17T08:41:46;17.80;99.90
5429;DHT22;2737;52.386;9.980;2023-08-17T08:44:13;17.70;99.90
5429;DHT22;2737;52.386;9.980;2023-08-17T08:46:40;17.70;99.90
5429;DHT22;2737;52.386;9.980;2023-08-17T08:49:12;17.70;99.90
5429;DHT22;2737;52.386;9.980;2023-08-17T08:51:43;17.80;99.90
5429;DHT22;2737;52.386;9.980;2023-08-17T08:54:13;17.80;99.90
5429;DHT22;2737;52.386;9.980;2023-08-17T08:56:43;17.80;99.90
5429;DHT22;2737;52.386;9.980;2023-08-17T08:59:11;17.80;99.90
5429;DHT22;2737;52.386;9.980;2023-08-17T09:01:39;17.80;99.90
5429;DHT22;2737;52.386;9.980;2023-08-17T09:04:07;17.80;99.90
5429;DHT22;2737;52.386;9.980;2023-08-17T09:06:36;17.80;99.90
5429;DHT22;2737;52.386;9.980;2023-08-17T09:09:04;17.80;99.90
5429;DHT22;2737;52.386;9.980;2023-08-17T09:11:32;17.80;99.90
5429;DHT22;2737;52.386;9.980;2023-08-17T09:13:59;17.80;99.90
5429;DHT22;2737;52.386;9.980;2023-08-17T09:16:27;17.80;99.90
5429;DHT22;2737;52.386;9.980;2023-08-17T09:18:54;17.70;99.90
5429;DHT22;2737;52.386;9.980;2023-08-17T09:21:22;17.60;99.90
5429;DHT22;2737;52.386;9.980;2023-08-17T09:23:54;17.60;99.90
5429;DHT22;2737;52.386;9.980;2023-08-17T09:26:22;17.50;99.90
5429;DHT22;2737;52.386;9.980;2023-08-17T09:28:49;17.50;99.90
5429;DHT22;2737;52.386;9.980;2023-08-17T09:31:20;17.40;99.90
5429;DHT22;2737;52.386;9.980;2023-08-17T09:33:49;17.30;99.90
5429;DHT22;2737;52.386;9.980;2023-08-17T09:36:20;17.30;99.90
5429;DHT22;2737;52.386;9.980;2023-08-17T09:38:48;17.30;99.90
5429;DHT22;2737;52.386;9.980;2023-08-17T09:41:17;17.40;99.90
5429;DHT22;2737;52.386;9.980;2023-08-17T09:43:44;17.50;99.90
5429;DHT22;2737;52.386;9.980;2023-08-17T09:46:12;17.50;99.90
5429;DHT22;2737;52.386;9.980;2023-08-17T09:48:39;17.60;99.90
5429;DHT22;2737;52.386;9.980;2023-08-17T09:51:06;17.50;99.90
5429;DHT22;2737;52.386;9.980;2023-08-17T09:53:35;17.50;99.90
5429;DHT22;2737;52.386;9.980;2023-08-17T09:56:05;17.50;99.90
5429;DHT22;2737;52.386;9.980;2023-08-17T09:58:35;17.50;99.90
5429;DHT22;2737;52.386;9.980;2023-08-17T10:01:04;17.50;99.90
5429;DHT22;2737;52.386;9.980;2023-08-17T10:03:33;17.40;99.90
5429;DHT22;2737;52.386;9.980;2023-08-17T10:06:04;17.20;99.90
5429;DHT22;2737;52.386;9.980;2023-08-17T10:08:34;17.30;99.90
5429;DHT22;2737;52.386;9.980;2023-08-17T10:11:04;17.30;99.90
5429;DHT22;2737;52.386;9.980;2023-08-17T10:13:39;17.40;99.90
5429;DHT22;2737;52.386;9.980;2023-08-17T10:16:11;17.40;99.90
5429;DHT22;2737;52.386;9.980;2023-08-17T10:18:49;17.30;99.90
5429;DHT22;2737;52.386;9.980;2023-08-17T10:21:22;17.30;99.90
5429;DHT22;2737;52.386;9.980;2023-08-17T10:23:50;17.20;99.90
5429;DHT22;2737;52.386;9.980;2023-08-17T10:26:17;17.30;99.90
5429;DHT22;2737;52.386;9.980;2023-08-17T10:28:46;17.20;99.90
5429;DHT22;2737;52.386;9.980;2023-08-17T10:31:14;17.10;99.90
5429;DHT22;2737;52.386;9.980;2023-08-17T10:33:42;17.10;99.90
5429;DHT22;2737;52.386;9.980;2023-08-17T10:36:12;17.00;99.90
5429;DHT22;2737;52.386;9.980;2023-08-17T10:38:40;17.00;99.90
5429;DHT22;2737;52.386;9.980;2023-08-17T10:41:12;17.10;99.90
5429;DHT22;2737;52.386;9.980;2023-08-17T10:43:57;17.20;99.90
5429;DHT22;2737;52.386;9.980;2023-08-17T10:46:34;17.20;99.90
5429;DHT22;2737;52.386;9.980;2023-08-17T10:49:03;17.10;99.90
5429;DHT22;2737;52.386;9.980;2023-08-17T10:51:31;17.00;99.90
5429;DHT22;2737;52.386;9.980;2023-08-17T10:54:01;17.00;99.90
5429;DHT22;2737;52.386;9.980;2023-08-17T10:56:28;17.00;99.90
5429;DHT22;2737;52.386;9.980;2023-08-17T10:59:00;17.00;99.90
5429;DHT22;2737;52.386;9.980;2023-08-17T11:01:32;17.00;99.90
5429;DHT22;2737;52.386;9.980;2023-08-17T11:04:09;17.00;99.90
5429;DHT22;2737;52.386;9.980;2023-08-17T11:06:37;16.90;99.90
5429;DHT22;2737;52.386;9.980;2023-08-17T11:09:07;16.90;99.90
5429;DHT22;2737;52.386;9.980;2023-08-17T11:11:34;17.00;99.90
5429;DHT22;2737;52.386;9.980;2023-08-17T11:14:03;17.00;99.90
5429;DHT22;2737;52.386;9.980;2023-08-17T11:16:30;17.00;99.90
5429;DHT22;2737;52.386;9.980;2023-08-17T11:18:57;17.00;99.90
5429;DHT22;2737;52.386;9.980;2023-08-17T11:21:25;17.00;99.90
5429;DHT22;2737;52.386;9.980;2023-08-17T11:23:55;17.00;99.90
5429;DHT22;2737;52.386;9.980;2023-08-17T11:26:23;17.00;99.90
5429;DHT22;2737;52.386;9.980;2023-08-17T11:28:50;16.90;99.90
5429;DHT22;2737;52.386;9.980;2023-08-17T11:31:19;16.90;99.90
5429;DHT22;2737;52.386;9.980;2023-08-17T11:33:47;17.00;99.90
5429;DHT22;2737;52.386;9.980;2023-08-17T11:36:16;17.00;99.90
5429;DHT22;2737;52.386;9.980;2023-08-17T11:38:43;17.00;99.90
5429;DHT22;2737;52.386;9.980;2023-08-17T11:41:10;17.10;99.90
5429;DHT22;2737;52.386;9.980;2023-08-17T11:43:37;17.10;99.90
5429;DHT22;2737;52.386;9.980;2023-08-17T11:46:05;17.10;99.90
5429;DHT22;2737;52.386;9.980;2023-08-17T11:48:33;17.10;99.90
5429;DHT22;2737;52.386;9.980;2023-08-17T11:51:00;17.10;99.90
5429;DHT22;2737;52.386;9.980;2023-08-17T11:53:33;17.10;99.90
5429;DHT22;2737;52.386;9.980;2023-08-17T11:56:00;17.10;99.90
5429;DHT22;2737;52.386;9.980;2023-08-17T11:58:40;17.10;99.90
5429;DHT22;2737;52.386;9.980;2023-08-17T12:01:09;17.00;99.90
5429;DHT22;2737;52.386;9.980;2023-08-17T12:03:38;17.00;99.90
5429;DHT22;2737;52.386;9.980;2023-08-17T12:06:06;17.10;99.90
5429;DHT22;2737;52.386;9.980;2023-08-17T12:08:33;17.10;99.90
5429;DHT22;2737;52.386;9.980;2023-08-17T12:11:00;17.00;99.90
5429;DHT22;2737;52.386;9.980;2023-08-17T12:13:32;17.00;99.90
5429;DHT22;2737;52.386;9.980;2023-08-17T12:15:59;17.10;99.90
5429;DHT22;2737;52.386;9.980;2023-08-17T12:18:26;17.00;99.90
5429;DHT22;2737;52.386;9.980;2023-08-17T12:20:55;17.00;99.90
5429;DHT22;2737;52.386;9.980;2023-08-17T12:23:22;17.10;99.90
5429;DHT22;2737;52.386;9.980;2023-08-17T12:25:53;17.20;99.90
5429;DHT22;2737;52.386;9.980;2023-08-17T12:28:21;17.10;99.90
5429;DHT22;2737;52.386;9.980;2023-08-17T12:30:57;17.00;99.90
5429;DHT22;2737;52.386;9.980;2023-08-17T12:33:25;17.10;99.90
5429;DHT22;2737;52.386;9.980;2023-08-17T12:35:52;17.10;99.90
5429;DHT22;2737;52.386;9.980;2023-08-17T12:38:21;17.10;99.90
5429;DHT22;2737;52.386;9.980;2023-08-17T12:40:48;17.10;99.90
5429;DHT22;2737;52.386;9.980;2023-08-17T12:43:15;17.10;99.90
5429;DHT22;2737;52.386;9.980;2023-08-17T12:45:42;17.10;99.90
5429;DHT22;2737;52.386;9.980;2023-08-17T12:48:09;17.10;99.90
5429;DHT22;2737;52.386;9.980;2023-08-17T12:50:36;17.10;99.90
5429;DHT22;2737;52.386;9.980;2023-08-17T12:53:03;17.10;99.90
5429;DHT22;2737;52.386;9.980;2023-08-17T12:55:32;17.10;99.90
5429;DHT22;2737;52.386;9.980;2023-08-17T12:57:59;17.20;99.90
5429;DHT22;2737;52.386;9.980;2023-08-17T13:00:26;17.20;99.90
5429;DHT22;2737;52.386;9.980;2023-08-17T13:02:53;17.10;99.90
5429;DHT22;2737;52.386;9.980;2023-08-17T13:05:20;17.10;99.90
5429;DHT22;2737;52.386;9.980;2023-08-17T13:07:47;17.20;99.90
5429;DHT22;2737;52.386;9.980;2023-08-17T13:10:14;17.20;99.90
5429;DHT22;2737;52.386;9.980;2023-08-17T13:12:42;17.10;99.90
5429;DHT22;2737;52.386;9.980;2023-08-17T13:15:09;17.20;99.90
5429;DHT22;2737;52.386;9.980;2023-08-17T13:17:36;17.10;99.90
5429;DHT22;2737;52.386;9.980;2023-08-17T13:20:04;17.10;99.90
5429;DHT22;2737;52.386;9.980;2023-08-17T13:22:32;17.20;99.90
5429;DHT22;2737;52.386;9.980;2023-08-17T13:24:59;17.10;99.90
5429;DHT22;2737;52.386;9.980;2023-08-17T13:27:26;17.10;99.90
5429;DHT22;2737;52.386;9.980;2023-08-17T13:29:55;17.10;99.90
5429;DHT22;2737;52.386;9.980;2023-08-17T13:32:24;17.10;99.90
5429;DHT22;2737;52.386;9.980;2023-08-17T13:34:51;17.10;99.90
5429;DHT22;2737;52.386;9.980;2023-08-17T13:37:18;17.20;99.90
5429;DHT22;2737;52.386;9.980;2023-08-17T13:39:45;17.20;99.90
5429;DHT22;2737;52.386;9.980;2023-08-17T13:42:12;17.20;99.90
5429;DHT22;2737;52.386;9.980;2023-08-17T13:44:40;17.30;99.90
5429;DHT22;2737;52.386;9.980;2023-08-17T13:47:08;17.30;99.90
5429;DHT22;2737;52.386;9.980;2023-08-17T13:49:35;17.30;99.90
5429;DHT22;2737;52.386;9.980;2023-08-17T13:52:03;17.30;99.90
5429;DHT22;2737;52.386;9.980;2023-08-17T13:54:30;17.30;99.90
5429;DHT22;2737;52.386;9.980;2023-08-17T13:56:57;17.30;99.90
5429;DHT22;2737;52.386;9.980;2023-08-17T13:59:24;17.30;99.90
5429;DHT22;2737;52.386;9.980;2023-08-17T14:01:51;17.40;99.90
5429;DHT22;2737;52.386;9.980;2023-08-17T14:04:19;17.40;99.90
5429;DHT22;2737;52.386;9.980;2023-08-17T14:06:46;17.40;99.90
5429;DHT22;2737;52.386;9.980;2023-08-17T14:09:13;17.40;99.90
5429;DHT22;2737;52.386;9.980;2023-08-17T14:11:41;17.40;99.90
5429;DHT22;2737;52.386;9.980;2023-08-17T14:14:08;17.40;99.90
5429;DHT22;2737;52.386;9.980;2023-08-17T14:16:35;17.40;99.90
5429;DHT22;2737;52.386;9.980;2023-08-17T14:19:03;17.50;99.90
5429;DHT22;2737;52.386;9.980;2023-08-17T14:21:31;17.50;99.90
5429;DHT22;2737;52.386;9.980;2023-08-17T14:23:58;17.50;99.90
5429;DHT22;2737;52.386;9.980;2023-08-17T14:26:25;17.50;99.90
5429;DHT22;2737;52.386;9.980;2023-08-17T14:28:52;17.50;99.90
5429;DHT22;2737;52.386;9.980;2023-08-17T14:31:19;17.50;99.90
5429;DHT22;2737;52.386;9.980;2023-08-17T14:33:46;17.60;99.90
5429;DHT22;2737;52.386;9.980;2023-08-17T14:36:13;17.60;99.90
5429;DHT22;2737;52.386;9.980;2023-08-17T14:38:42;17.60;99.90
5429;DHT22;2737;52.386;9.980;2023-08-17T14:41:09;17.70;99.90
5429;DHT22;2737;52.386;9.980;2023-08-17T14:43:36;17.60;99.90
5429;DHT22;2737;52.386;9.980;2023-08-17T14:46:03;17.70;99.90
5429;DHT22;2737;52.386;9.980;2023-08-17T14:48:30;17.70;99.90
5429;DHT22;2737;52.386;9.980;2023-08-17T14:50:57;17.80;99.90
5429;DHT22;2737;52.386;9.980;2023-08-17T14:53:24;17.80;99.90
5429;DHT22;2737;52.386;9.980;2023-08-17T14:55:52;17.80;99.90
5429;DHT22;2737;52.386;9.980;2023-08-17T14:58:20;17.70;99.90
5429;DHT22;2737;52.386;9.980;2023-08-17T15:00:47;17.80;99.90
5429;DHT22;2737;52.386;9.980;2023-08-17T15:03:14;17.70;99.90
5429;DHT22;2737;52.386;9.980;2023-08-17T15:05:41;17.70;99.90
5429;DHT22;2737;52.386;9.980;2023-08-17T15:08:08;17.70;99.90
5429;DHT22;2737;52.386;9.980;2023-08-17T15:10:35;17.70;99.90
5429;DHT22;2737;52.386;9.980;2023-08-17T15:13:04;17.70;99.90
5429;DHT22;2737;52.386;9.980;2023-08-17T15:15:31;17.80;99.90
5429;DHT22;2737;52.386;9.980;2023-08-17T15:17:57;17.80;99.90
5429;DHT22;2737;52.386;9.980;2023-08-17T15:20:24;17.80;99.90
5429;DHT22;2737;52.386;9.980;2023-08-17T15:22:52;17.80;99.90
5429;DHT22;2737;52.386;9.980;2023-08-17T15:25:19;17.80;99.90
5429;DHT22;2737;52.386;9.980;2023-08-17T15:27:46;17.80;99.90
5429;DHT22;2737;52.386;9.980;2023-08-17T15:30:15;17.80;99.90
5429;DHT22;2737;52.386;9.980;2023-08-17T15:32:42;17.60;99.90
5429;DHT22;2737;52.386;9.980;2023-08-17T15:35:10;17.70;99.90
5429;DHT22;2737;52.386;9.980;2023-08-17T15:37:39;17.80;99.90
5429;DHT22;2737;52.386;9.980;2023-08-17T15:40:07;17.80;99.90
5429;DHT22;2737;52.386;9.980;2023-08-17T15:42:35;17.80;99.90
5429;DHT22;2737;52.386;9.980;2023-08-17T15:45:02;17.80;99.90
5429;DHT22;2737;52.386;9.980;2023-08-17T15:47:30;17.80;99.90
5429;DHT22;2737;52.386;9.980;2023-08-17T15:49:57;17.90;99.90
5429;DHT22;2737;52.386;9.980;2023-08-17T15:52:24;17.90;99.90
5429;DHT22;2737;52.386;9.980;2023-08-17T15:54:51;17.80;99.90
5429;DHT22;2737;52.386;9.980;2023-08-17T15:57:18;17.80;99.90
5429;DHT22;2737;52.386;9.980;2023-08-17T15:59:45;17.80;99.90
5429;DHT22;2737;52.386;9.980;2023-08-17T16:02:15;17.80;99.90
5429;DHT22;2737;52.386;9.980;2023-08-17T16:04:44;17.70;99.90